Time;durP1;ratioP1;P1;durP2;ratioP2;P2;SDS_P1;SDS_P2;PMS_P1;PMS_P2;Temp;Humidity;BMP_temperature;BMP_pressure;BME280_temperature;BME280_humidity;BME280_pressure;Samples;Min_cycle;Max_cycle;Signal;HPM_P1;HPM_P2
2023/10/09 00:00:50;;;;;;;;;17.00;14.00;;;;;;;;5080070;28;46286;-56
2023/10/09 00:03:17;;;;;;;;;14.33;13.33;;;;;;;;5078165;27;45484;-55
2023/10/09 00:08:22;;;;;;;;;13.33;11.33;;;;;;;;5071198;27;45411;-55
2023/10/09 00:10:53;;;;;;;;;14.00;12.33;;;;;;;;5079962;28;45649;-55
2023/10/09 00:13:19;;;;;;;;;13.33;10.67;;;;;;;;5074627;27;46249;-56
2023/10/09 00:15:52;;;;;;;;;13.00;13.00;;;;;;;;5076152;27;45265;-55
2023/10/09 00:18:22;;;;;;;;;17.67;13.00;;;;;;;;5071617;27;45242;-55
2023/10/09 00:20:54;;;;;;;;;13.00;11.33;;;;;;;;5081458;27;45429;-55
2023/10/09 00:23:19;;;;;;;;;14.67;12.67;;;;;;;;5073315;28;46204;-55
2023/10/09 00:26:08;;;;;;;;;16.33;11.00;;;;;;;;5077324;28;45444;-55
2023/10/09 00:28:35;;;;;;;;;14.33;12.00;;;;;;;;5073328;27;45570;-55
2023/10/09 00:31:04;;;;;;;;;12.33;11.67;;;;;;;;5076517;27;45394;-55
2023/10/09 00:33:29;;;;;;;;;15.67;13.00;;;;;;;;5074567;28;45410;-55
2023/10/09 00:35:55;;;;;;;;;15.67;12.00;;;;;;;;5079744;27;45870;-55
2023/10/09 00:40:47;;;;;;;;;5.00;5.00;;;;;;;;5080683;27;45175;-53
2023/10/09 00:43:13;;;;;;;;;12.67;11.00;;;;;;;;5070187;28;45432;-55
2023/10/09 00:45:40;;;;;;;;;16.33;10.67;;;;;;;;5075745;27;45423;-55
2023/10/09 00:48:06;;;;;;;;;12.33;11.00;;;;;;;;5070026;27;45654;-55
2023/10/09 00:50:35;;;;;;;;;10.33;10.33;;;;;;;;5067524;27;45510;-55
2023/10/09 00:53:04;;;;;;;;;17.00;13.00;;;;;;;;5067013;27;45406;-55
2023/10/09 00:55:45;;;;;;;;;16.33;12.00;;;;;;;;5063487;27;45402;-55
2023/10/09 00:58:14;;;;;;;;;10.67;10.67;;;;;;;;5070820;27;45428;-56
2023/10/09 01:00:46;;;;;;;;;13.33;12.33;;;;;;;;5065455;27;45466;-61
2023/10/09 01:11:09;;;;;;;;;14.00;12.00;;;;;;;;5079230;27;45464;-55
2023/10/09 01:13:52;;;;;;;;;14.33;11.00;;;;;;;;5081401;27;46520;-55
2023/10/09 01:16:22;;;;;;;;;10.67;10.67;;;;;;;;5076746;27;45417;-55
2023/10/09 01:18:49;;;;;;;;;11.67;10.67;;;;;;;;5081649;27;45452;-55
2023/10/09 01:21:14;;;;;;;;;12.00;12.00;;;;;;;;5075008;27;45631;-55
2023/10/09 01:24:08;;;;;;;;;11.33;10.33;;;;;;;;5075070;27;45513;-55
2023/10/09 01:26:44;;;;;;;;;10.00;9.67;;;;;;;;5075370;28;45314;-55
2023/10/09 01:29:19;;;;;;;;;14.33;10.33;;;;;;;;5085310;27;45531;-56
2023/10/09 01:31:54;;;;;;;;;11.33;10.67;;;;;;;;5069400;27;45452;-56
2023/10/09 01:34:42;;;;;;;;;9.67;9.67;;;;;;;;5072863;27;47320;-55
2023/10/09 01:37:17;;;;;;;;;14.33;10.00;;;;;;;;5079197;27;45307;-55
2023/10/09 01:39:44;;;;;;;;;16.00;13.00;;;;;;;;5072262;28;45271;-55
2023/10/09 01:42:10;;;;;;;;;9.67;9.67;;;;;;;;5074976;27;45471;-55
2023/10/09 01:44:37;;;;;;;;;8.33;8.33;;;;;;;;5079993;27;46006;-55
2023/10/09 01:47:07;;;;;;;;;10.00;10.00;;;;;;;;5074142;27;45450;-54
2023/10/09 01:49:37;;;;;;;;;11.33;9.67;;;;;;;;5080029;27;45332;-54
2023/10/09 01:52:07;;;;;;;;;11.67;8.67;;;;;;;;5082961;27;45563;-55
2023/10/09 01:54:40;;;;;;;;;11.00;11.00;;;;;;;;5066273;27;46209;-53
2023/10/09 01:57:10;;;;;;;;;12.00;9.00;;;;;;;;5078343;27;45457;-55
2023/10/09 01:59:38;;;;;;;;;12.00;11.33;;;;;;;;5078774;27;45483;-54
2023/10/09 02:02:44;;;;;;;;;13.67;12.00;;;;;;;;5075659;27;45383;-55
2023/10/09 02:05:33;;;;;;;;;10.33;10.33;;;;;;;;5077562;27;45972;-55
2023/10/09 02:07:53;;;;;;;;;13.33;10.33;;;;;;;;5074452;27;45675;-54
2023/10/09 02:13:11;;;;;;;;;13.33;11.00;;;;;;;;5080043;27;45281;-55
2023/10/09 02:15:59;;;;;;;;;11.00;11.00;;;;;;;;5080480;27;45436;-54
2023/10/09 02:21:12;;;;;;;;;8.00;8.00;;;;;;;;5074993;27;45289;-55
2023/10/09 02:26:07;;;;;;;;;10.33;9.00;;;;;;;;5077085;27;45503;-55
2023/10/09 02:28:34;;;;;;;;;12.00;11.00;;;;;;;;5079340;27;45314;-55
2023/10/09 02:31:09;;;;;;;;;9.00;9.00;;;;;;;;5079630;27;45529;-54
2023/10/09 02:33:36;;;;;;;;;11.33;10.00;;;;;;;;5081650;27;45378;-55
2023/10/09 02:36:05;;;;;;;;;15.67;11.33;;;;;;;;5071392;27;45414;-55
2023/10/09 02:38:33;;;;;;;;;10.67;9.00;;;;;;;;5075869;27;45383;-55
2023/10/09 02:43:50;;;;;;;;;11.67;10.33;;;;;;;;5082342;27;45419;-55
2023/10/09 02:48:50;;;;;;;;;14.67;8.00;;;;;;;;5065277;27;45508;-54
2023/10/09 02:51:30;;;;;;;;;10.00;9.00;;;;;;;;5070272;27;45291;-55
2023/10/09 02:53:57;;;;;;;;;13.33;10.00;;;;;;;;5070934;27;45484;-54
2023/10/09 02:57:23;;;;;;;;;12.00;10.00;;;;;;;;5079287;27;46077;-54
2023/10/09 02:59:21;;;;;;;;;9.00;8.67;;;;;;;;5067490;27;45670;-55
2023/10/09 03:01:46;;;;;;;;;16.00;10.67;;;;;;;;5076805;27;45471;-54
2023/10/09 03:04:14;;;;;;;;;10.67;8.00;;;;;;;;5075579;27;45151;-55
2023/10/09 03:06:53;;;;;;;;;11.00;9.33;;;;;;;;5079796;27;45500;-54
2023/10/09 03:09:18;;;;;;;;;10.33;9.33;;;;;;;;5075167;27;46065;-54
2023/10/09 03:11:53;;;;;;;;;8.67;8.67;;;;;;;;5077109;27;45432;-53
2023/10/09 03:14:20;;;;;;;;;10.67;10.00;;;;;;;;5083608;27;45436;-54
2023/10/09 03:16:48;;;;;;;;;11.00;11.00;;;;;;;;5075057;27;45391;-54
2023/10/09 03:19:13;;;;;;;;;10.00;6.00;;;;;;;;5078884;27;45294;-54
2023/10/09 03:21:38;;;;;;;;;9.00;9.00;;;;;;;;5079713;27;45379;-53
2023/10/09 03:24:06;;;;;;;;;12.00;9.33;;;;;;;;5079570;27;45270;-55
2023/10/09 03:26:31;;;;;;;;;9.50;9.00;;;;;;;;5075951;27;46075;-54
2023/10/09 03:29:00;;;;;;;;;9.33;7.67;;;;;;;;5071266;27;45804;-55
2023/10/09 03:31:26;;;;;;;;;9.00;7.00;;;;;;;;5075603;27;45274;-54
2023/10/09 03:33:52;;;;;;;;;9.67;8.33;;;;;;;;5080233;27;45416;-54
2023/10/09 03:36:17;;;;;;;;;10.33;9.00;;;;;;;;5071287;27;46761;-55
2023/10/09 03:38:42;;;;;;;;;9.33;8.00;;;;;;;;5078201;27;45593;-54
2023/10/09 03:41:12;;;;;;;;;6.67;5.00;;;;;;;;5077018;27;45310;-55
2023/10/09 03:43:39;;;;;;;;;9.67;8.67;;;;;;;;5079488;27;45558;-55
2023/10/09 03:46:05;;;;;;;;;11.00;8.67;;;;;;;;5076139;27;48226;-55
2023/10/09 03:48:36;;;;;;;;;10.33;7.67;;;;;;;;5080655;27;45496;-54
2023/10/09 03:51:08;;;;;;;;;11.00;8.00;;;;;;;;5074996;27;45442;-53
2023/10/09 03:53:36;;;;;;;;;7.33;7.00;;;;;;;;5084814;27;45353;-54
2023/10/09 03:56:05;;;;;;;;;10.00;7.67;;;;;;;;5071305;27;45342;-55
2023/10/09 03:58:33;;;;;;;;;6.33;5.00;;;;;;;;5070911;27;45549;-55
2023/10/09 04:00:58;;;;;;;;;9.00;9.00;;;;;;;;5072853;27;46356;-54
2023/10/09 04:03:24;;;;;;;;;7.00;7.00;;;;;;;;5077207;27;45260;-54
2023/10/09 04:05:51;;;;;;;;;8.67;8.33;;;;;;;;5076502;27;45607;-53
2023/10/09 04:08:28;;;;;;;;;7.33;7.00;;;;;;;;5074126;27;45173;-54
2023/10/09 04:10:54;;;;;;;;;7.00;7.00;;;;;;;;5071807;27;45410;-53
2023/10/09 04:13:23;;;;;;;;;7.00;6.67;;;;;;;;5079613;27;45665;-53
2023/10/09 04:15:49;;;;;;;;;9.33;7.33;;;;;;;;5081983;27;45322;-52
2023/10/09 04:18:15;;;;;;;;;12.00;8.50;;;;;;;;5081082;27;45354;-53
2023/10/09 04:20:51;;;;;;;;;10.33;8.00;;;;;;;;5077001;27;45577;-53
2023/10/09 04:23:16;;;;;;;;;7.00;6.33;;;;;;;;5075004;27;45558;-54
2023/10/09 04:25:41;;;;;;;;;10.00;8.00;;;;;;;;5080459;27;45748;-54
2023/10/09 04:28:18;;;;;;;;;8.67;7.33;;;;;;;;5079436;27;45784;-54
2023/10/09 04:30:46;;;;;;;;;6.00;6.00;;;;;;;;5081899;27;45450;-55
2023/10/09 04:39:05;;;;;;;;;8.00;8.00;;;;;;;;5077167;27;45346;-54
2023/10/09 04:41:51;;;;;;;;;12.33;6.00;;;;;;;;5070457;27;45575;-54
2023/10/09 04:44:29;;;;;;;;;7.33;7.00;;;;;;;;5071744;28;45600;-54
2023/10/09 04:57:45;;;;;;;;;9.00;7.33;;;;;;;;5072335;27;45383;-53
2023/10/09 05:02:58;;;;;;;;;11.33;10.33;;;;;;;;5075116;27;46751;-54
2023/10/09 05:06:20;;;;;;;;;10.67;7.33;;;;;;;;5075140;27;45774;-53
2023/10/09 05:08:28;;;;;;;;;11.00;9.00;;;;;;;;5064850;27;46129;-54
2023/10/09 05:16:15;;;;;;;;;5.00;4.33;;;;;;;;5075411;28;45897;-54
2023/10/09 05:18:41;;;;;;;;;13.00;12.33;;;;;;;;5076750;27;45543;-56
2023/10/09 05:21:52;;;;;;;;;9.00;9.00;;;;;;;;5078011;27;45366;-55
2023/10/09 05:32:15;;;;;;;;;14.33;11.33;;;;;;;;5087651;27;45649;-57
2023/10/09 05:37:34;;;;;;;;;11.67;10.67;;;;;;;;5087151;27;45300;-40
2023/10/09 05:53:05;;;;;;;;;10.33;9.33;;;;;;;;5076443;27;45343;-40
2023/10/09 06:03:45;;;;;;;;;12.33;10.00;;;;;;;;5077391;27;46191;-40
2023/10/09 06:06:18;;;;;;;;;12.00;11.00;;;;;;;;5077447;27;45434;-40
2023/10/09 06:14:03;;;;;;;;;11.00;9.00;;;;;;;;5076043;27;45476;-40
2023/10/09 06:19:42;;;;;;;;;8.33;8.00;;;;;;;;5078180;27;45202;-40
2023/10/09 06:30:46;;;;;;;;;14.00;10.33;;;;;;;;5075661;28;45576;-41
2023/10/09 06:35:23;;;;;;;;;14.33;13.00;;;;;;;;5076409;28;45444;-40
2023/10/09 06:43:17;;;;;;;;;12.00;11.33;;;;;;;;5066065;28;45802;-40
2023/10/09 06:45:45;;;;;;;;;12.67;10.33;;;;;;;;5073097;28;45396;-40
2023/10/09 06:48:55;;;;;;;;;10.33;10.33;;;;;;;;5068724;28;45513;-40
2023/10/09 06:58:55;;;;;;;;;11.67;10.00;;;;;;;;5069881;28;45310;-41
2023/10/09 07:01:28;;;;;;;;;10.67;8.67;;;;;;;;5071574;28;45497;-41
2023/10/09 07:03:59;;;;;;;;;11.00;11.00;;;;;;;;5074939;28;45552;-41
2023/10/09 07:06:47;;;;;;;;;16.67;11.67;;;;;;;;5068707;28;45425;-41
2023/10/09 07:14:07;;;;;;;;;14.33;11.67;;;;;;;;5075723;28;45420;-41
2023/10/09 07:16:39;;;;;;;;;10.00;10.00;;;;;;;;5065976;28;45526;-40
2023/10/09 07:19:25;;;;;;;;;10.33;10.33;;;;;;;;5066796;28;45643;-41
2023/10/09 07:21:54;;;;;;;;;12.67;11.33;;;;;;;;5075100;28;45461;-41
2023/10/09 07:24:24;;;;;;;;;11.00;11.00;;;;;;;;5078565;28;45323;-41
2023/10/09 07:26:53;;;;;;;;;14.33;12.33;;;;;;;;5077168;28;45367;-41
2023/10/09 07:29:22;;;;;;;;;15.00;13.00;;;;;;;;5080548;27;45740;-41
2023/10/09 07:31:56;;;;;;;;;13.00;13.00;;;;;;;;5079374;27;45403;-41
2023/10/09 07:34:31;;;;;;;;;17.33;14.00;;;;;;;;5078568;27;45678;-40
2023/10/09 07:36:56;;;;;;;;;16.00;15.33;;;;;;;;5083839;27;45246;-41
2023/10/09 07:39:22;;;;;;;;;14.00;14.00;;;;;;;;5086076;27;45552;-41
2023/10/09 07:42:01;;;;;;;;;19.33;14.33;;;;;;;;5083894;27;45450;-41
2023/10/09 07:44:42;;;;;;;;;12.00;12.00;;;;;;;;5078874;27;45580;-41
2023/10/09 07:49:53;;;;;;;;;11.00;7.00;;;;;;;;5077432;27;45595;-41
2023/10/09 07:52:21;;;;;;;;;11.33;10.00;;;;;;;;5076880;27;45562;-40
2023/10/09 07:54:49;;;;;;;;;12.00;10.00;;;;;;;;5081721;27;46172;-41
2023/10/09 07:57:16;;;;;;;;;12.33;10.67;;;;;;;;5077202;27;45676;-41
2023/10/09 07:59:49;;;;;;;;;12.00;9.00;;;;;;;;5076087;27;45408;-41
2023/10/09 08:02:14;;;;;;;;;13.00;10.33;;;;;;;;5079177;27;45388;-41
2023/10/09 08:04:49;;;;;;;;;16.33;14.00;;;;;;;;5082503;27;45255;-40
2023/10/09 08:07:34;;;;;;;;;13.00;10.00;;;;;;;;5078886;27;45364;-40
2023/10/09 08:17:50;;;;;;;;;14.00;11.67;;;;;;;;5073374;27;45451;-41
2023/10/09 08:20:17;;;;;;;;;17.67;12.00;;;;;;;;5081442;27;45668;-42
2023/10/09 08:22:52;;;;;;;;;15.00;14.00;;;;;;;;5075485;27;45485;-41
2023/10/09 08:25:26;;;;;;;;;15.67;15.33;;;;;;;;5078235;27;45499;-42
2023/10/09 08:27:55;;;;;;;;;16.33;15.00;;;;;;;;5066171;27;45527;-42
2023/10/09 08:33:02;;;;;;;;;16.00;14.33;;;;;;;;5072718;27;45286;-43
2023/10/09 08:35:32;;;;;;;;;16.33;16.33;;;;;;;;5073205;27;46294;-42
2023/10/09 08:38:07;;;;;;;;;12.00;11.00;;;;;;;;5078334;27;45476;-42
2023/10/09 08:40:38;;;;;;;;;13.00;11.67;;;;;;;;5077415;27;45775;-42
2023/10/09 08:43:24;;;;;;;;;12.00;9.33;;;;;;;;5071711;27;45450;-42
2023/10/09 08:45:51;;;;;;;;;13.00;10.00;;;;;;;;5064237;27;46086;-40
2023/10/09 08:48:17;;;;;;;;;10.67;10.67;;;;;;;;5072452;27;45310;-42
2023/10/09 08:50:49;;;;;;;;;5.67;5.67;;;;;;;;5071352;27;45351;-42
2023/10/09 08:53:16;;;;;;;;;11.33;10.33;;;;;;;;5068258;27;45267;-41
2023/10/09 08:55:41;;;;;;;;;9.00;9.00;;;;;;;;5077246;27;45583;-41
2023/10/09 08:58:18;;;;;;;;;12.33;9.00;;;;;;;;5075685;27;45354;-41
2023/10/09 09:00:45;;;;;;;;;12.33;10.67;;;;;;;;5074206;28;45468;-41
2023/10/09 09:03:12;;;;;;;;;12.67;12.00;;;;;;;;5077954;27;45541;-41
2023/10/09 09:05:37;;;;;;;;;10.33;9.67;;;;;;;;5073538;28;46346;-41
2023/10/09 09:08:02;;;;;;;;;9.67;9.67;;;;;;;;5078620;27;45370;-41
2023/10/09 09:10:35;;;;;;;;;10.33;10.33;;;;;;;;5067742;27;45424;-41
2023/10/09 09:13:03;;;;;;;;;11.67;10.00;;;;;;;;5068768;27;45439;-41
2023/10/09 09:15:29;;;;;;;;;10.00;9.67;;;;;;;;5076926;27;47069;-41
2023/10/09 09:18:06;;;;;;;;;13.00;10.00;;;;;;;;5076467;27;45267;-42
2023/10/09 09:20:36;;;;;;;;;12.00;9.33;;;;;;;;5078620;27;45372;-42
2023/10/09 09:23:04;;;;;;;;;10.67;10.00;;;;;;;;5078550;27;45469;-42
2023/10/09 09:25:59;;;;;;;;;5.00;5.00;;;;;;;;5075986;27;45469;-42
2023/10/09 09:28:26;;;;;;;;;8.00;8.00;;;;;;;;5084752;27;45226;-43
2023/10/09 09:30:53;;;;;;;;;8.67;7.00;;;;;;;;5078278;27;45444;-43
2023/10/09 09:33:26;;;;;;;;;10.33;10.33;;;;;;;;5076932;27;45547;-43
2023/10/09 09:35:58;;;;;;;;;12.33;8.00;;;;;;;;5076104;27;45650;-48
2023/10/09 09:38:25;;;;;;;;;8.67;7.33;;;;;;;;5077598;27;45423;-44
2023/10/09 09:40:53;;;;;;;;;9.50;8.00;;;;;;;;5080745;27;45787;-44
2023/10/09 09:43:23;;;;;;;;;10.67;9.00;;;;;;;;5076301;27;45365;-43
2023/10/09 09:45:50;;;;;;;;;10.75;9.75;;;;;;;;5077528;27;45413;-44
2023/10/09 09:48:16;;;;;;;;;9.75;7.25;;;;;;;;5077255;27;45389;-43
2023/10/09 09:50:45;;;;;;;;;12.25;10.00;;;;;;;;5084043;27;45353;-46
2023/10/09 09:53:17;;;;;;;;;10.75;9.75;;;;;;;;5080141;27;45903;-44
2023/10/09 09:55:51;;;;;;;;;6.00;5.50;;;;;;;;5079239;27;46081;-44
2023/10/09 09:58:20;;;;;;;;;9.00;8.75;;;;;;;;5082371;27;45434;-45
2023/10/09 10:00:52;;;;;;;;;10.25;9.50;;;;;;;;5078421;27;45492;-44
2023/10/09 10:03:24;;;;;;;;;8.75;8.00;;;;;;;;5078921;27;45789;-43
2023/10/09 10:05:50;;;;;;;;;12.25;10.00;;;;;;;;5077131;27;46178;-43
2023/10/09 10:08:20;;;;;;;;;14.00;11.50;;;;;;;;5077749;27;45476;-44
2023/10/09 10:10:57;;;;;;;;;11.75;11.75;;;;;;;;5077690;27;45537;-45
2023/10/09 10:13:46;;;;;;;;;12.25;9.25;;;;;;;;5074734;27;45373;-43
2023/10/09 10:16:21;;;;;;;;;9.00;6.75;;;;;;;;5069246;27;46458;-44
2023/10/09 10:18:53;;;;;;;;;8.25;7.50;;;;;;;;5079927;27;45418;-44
2023/10/09 10:21:29;;;;;;;;;7.25;7.25;;;;;;;;5076294;27;45619;-43
2023/10/09 10:24:02;;;;;;;;;10.00;8.25;;;;;;;;5080167;27;45509;-43
2023/10/09 10:26:33;;;;;;;;;8.75;8.00;;;;;;;;5074020;27;47067;-44
2023/10/09 10:29:22;;;;;;;;;10.25;8.75;;;;;;;;5074682;27;45466;-45
2023/10/09 10:31:54;;;;;;;;;7.00;6.00;;;;;;;;5073831;27;45461;-44
2023/10/09 10:34:23;;;;;;;;;5.75;5.75;;;;;;;;5076098;27;45373;-44
2023/10/09 10:36:52;;;;;;;;;8.00;6.00;;;;;;;;5073615;27;45352;-46
2023/10/09 10:39:42;;;;;;;;;8.75;7.50;;;;;;;;5076596;27;45472;-46
2023/10/09 10:42:09;;;;;;;;;5.00;5.00;;;;;;;;5070873;27;45459;-45
2023/10/09 10:44:36;;;;;;;;;6.00;4.75;;;;;;;;5066230;27;45394;-44
2023/10/09 10:47:01;;;;;;;;;5.75;5.00;;;;;;;;5071408;27;46101;-43
2023/10/09 10:49:36;;;;;;;;;6.75;6.25;;;;;;;;5074535;27;45717;-45
2023/10/09 10:52:14;;;;;;;;;6.50;4.25;;;;;;;;5073120;27;45628;-44
2023/10/09 10:57:19;;;;;;;;;5.75;4.75;;;;;;;;5080403;27;45498;-44
2023/10/09 10:59:44;;;;;;;;;5.75;5.75;;;;;;;;5078473;27;45590;-44
2023/10/09 11:07:16;;;;;;;;;6.00;3.25;;;;;;;;5077268;27;45339;-45
2023/10/09 11:18:05;;;;;;;;;3.00;3.00;;;;;;;;5073111;27;45369;-46
2023/10/09 11:20:32;;;;;;;;;3.75;3.25;;;;;;;;5074484;27;45431;-45
2023/10/09 11:25:37;;;;;;;;;6.00;3.75;;;;;;;;5077829;27;45272;-46
2023/10/09 11:28:27;;;;;;;;;3.50;3.50;;;;;;;;5082661;27;46071;-44
2023/10/09 11:30:55;;;;;;;;;5.75;5.50;;;;;;;;5078142;27;45741;-45
2023/10/09 11:33:21;;;;;;;;;3.00;3.00;;;;;;;;5079347;27;45407;-46
2023/10/09 11:35:57;;;;;;;;;4.00;4.00;;;;;;;;5080042;27;45469;-46
2023/10/09 11:38:23;;;;;;;;;4.00;4.00;;;;;;;;5079154;27;47138;-46
2023/10/09 11:41:06;;;;;;;;;5.75;5.75;;;;;;;;5075010;28;45446;-45
2023/10/09 11:43:54;;;;;;;;;2.00;2.00;;;;;;;;5080063;27;45725;-47
2023/10/09 11:46:48;;;;;;;;;4.25;3.25;;;;;;;;5073417;27;45403;-47
2023/10/09 11:49:25;;;;;;;;;4.00;2.75;;;;;;;;5073218;27;46133;-47
2023/10/09 11:54:35;;;;;;;;;6.00;5.00;;;;;;;;5073563;28;45417;-50
2023/10/09 11:57:01;;;;;;;;;7.25;4.00;;;;;;;;5075578;27;45547;-47
2023/10/09 11:59:27;;;;;;;;;3.00;3.00;;;;;;;;5075297;27;45934;-45
2023/10/09 12:01:52;;;;;;;;;4.00;3.00;;;;;;;;5079518;27;45363;-46
2023/10/09 12:04:18;;;;;;;;;4.00;4.00;;;;;;;;5080567;28;45443;-45
2023/10/09 12:06:44;;;;;;;;;8.25;7.00;;;;;;;;5080262;28;45396;-45
2023/10/09 12:09:16;;;;;;;;;5.50;2.75;;;;;;;;5079980;28;45424;-46
2023/10/09 12:11:41;;;;;;;;;6.00;5.75;;;;;;;;5078986;27;45538;-45
2023/10/09 12:14:06;;;;;;;;;6.50;4.00;;;;;;;;5080425;28;45472;-45
2023/10/09 12:16:32;;;;;;;;;3.50;3.50;;;;;;;;5079342;27;46588;-46
2023/10/09 12:18:59;;;;;;;;;5.00;5.00;;;;;;;;5080548;28;47204;-46
2023/10/09 12:21:24;;;;;;;;;5.75;4.00;;;;;;;;5069893;27;45298;-48
2023/10/09 12:23:49;;;;;;;;;3.50;3.50;;;;;;;;5091178;27;45227;-49
2023/10/09 12:26:14;;;;;;;;;5.75;3.75;;;;;;;;5080252;27;45543;-47
2023/10/09 12:28:40;;;;;;;;;4.50;4.50;;;;;;;;5080567;27;46174;-48
2023/10/09 12:31:05;;;;;;;;;6.25;5.00;;;;;;;;5081189;27;45479;-46
2023/10/09 12:33:30;;;;;;;;;5.00;5.00;;;;;;;;5089073;27;45526;-47
2023/10/09 12:36:04;;;;;;;;;4.25;4.25;;;;;;;;5082189;27;45200;-49
2023/10/09 12:38:32;;;;;;;;;5.75;5.00;;;;;;;;5080623;27;46198;-46
2023/10/09 12:43:48;;;;;;;;;7.50;5.00;;;;;;;;5082550;27;45269;-46
2023/10/09 12:46:16;;;;;;;;;7.00;5.00;;;;;;;;5080486;27;45592;-46
2023/10/09 12:48:46;;;;;;;;;5.25;4.00;;;;;;;;5081582;27;46177;-46
2023/10/09 12:51:16;;;;;;;;;2.75;2.25;;;;;;;;5080381;27;45646;-45
2023/10/09 12:53:41;;;;;;;;;6.00;4.00;;;;;;;;5081183;27;45532;-46
2023/10/09 12:56:07;;;;;;;;;2.25;2.25;;;;;;;;5081598;27;45467;-45
2023/10/09 12:58:37;;;;;;;;;5.25;5.00;;;;;;;;5079754;28;46283;-45
2023/10/09 13:01:09;;;;;;;;;6.00;5.00;;;;;;;;5075292;27;45587;-48
2023/10/09 13:03:38;;;;;;;;;5.00;4.75;;;;;;;;5076944;28;45368;-44
2023/10/09 13:06:07;;;;;;;;;3.25;3.25;;;;;;;;5071500;28;45520;-44
2023/10/09 13:08:35;;;;;;;;;4.75;4.75;;;;;;;;5079453;27;46203;-44
2023/10/09 13:11:10;;;;;;;;;5.00;4.00;;;;;;;;5071775;28;45496;-45
2023/10/09 13:13:51;;;;;;;;;5.00;5.00;;;;;;;;5078567;28;45406;-45
2023/10/09 13:16:23;;;;;;;;;4.50;4.25;;;;;;;;5074819;28;45297;-46
2023/10/09 13:18:49;;;;;;;;;4.75;4.25;;;;;;;;5066027;28;46155;-47
2023/10/09 13:21:19;;;;;;;;;4.00;4.00;;;;;;;;5060473;28;45460;-46
2023/10/09 13:23:50;;;;;;;;;4.25;4.25;;;;;;;;5064347;28;45331;-45
2023/10/09 13:26:24;;;;;;;;;6.00;5.00;;;;;;;;5076042;28;45450;-46
2023/10/09 13:28:50;;;;;;;;;4.50;4.50;;;;;;;;5071327;28;46356;-45
2023/10/09 13:31:17;;;;;;;;;5.25;4.75;;;;;;;;5069071;28;45447;-49
2023/10/09 13:33:43;;;;;;;;;4.00;3.75;;;;;;;;5079628;28;45317;-45
2023/10/09 13:36:27;;;;;;;;;5.75;5.00;;;;;;;;5070403;28;45371;-48
2023/10/09 13:38:56;;;;;;;;;5.25;3.75;;;;;;;;5074609;28;47020;-46
2023/10/09 13:41:22;;;;;;;;;8.00;5.00;;;;;;;;5077183;27;45464;-44
2023/10/09 13:43:51;;;;;;;;;4.75;3.75;;;;;;;;5069566;28;45478;-45
2023/10/09 13:46:17;;;;;;;;;6.25;5.25;;;;;;;;5064645;27;45471;-47
2023/10/09 13:48:43;;;;;;;;;5.25;3.50;;;;;;;;5074368;28;46844;-46
2023/10/09 13:51:13;;;;;;;;;2.50;2.50;;;;;;;;5078946;28;45412;-48
2023/10/09 13:53:44;;;;;;;;;7.00;6.00;;;;;;;;5079517;28;45440;-44
2023/10/09 13:56:19;;;;;;;;;5.50;4.50;;;;;;;;5065832;27;45572;-45
2023/10/09 13:58:49;;;;;;;;;4.75;4.75;;;;;;;;5085721;27;47080;-44
2023/10/09 14:01:26;;;;;;;;;3.50;3.50;;;;;;;;5085187;27;45448;-47
2023/10/09 14:03:52;;;;;;;;;6.75;4.00;;;;;;;;5083831;27;45393;-47
2023/10/09 14:06:30;;;;;;;;;6.00;4.00;;;;;;;;5087101;27;45763;-45
2023/10/09 14:08:55;;;;;;;;;5.50;5.00;;;;;;;;5075655;27;46109;-46
2023/10/09 14:11:20;;;;;;;;;5.25;4.50;;;;;;;;5082442;27;45449;-44
2023/10/09 14:13:48;;;;;;;;;6.00;5.25;;;;;;;;5083942;27;45443;-44
2023/10/09 14:16:23;;;;;;;;;8.50;7.00;;;;;;;;5087333;27;45507;-46
2023/10/09 14:18:56;;;;;;;;;7.00;7.00;;;;;;;;5080752;27;46205;-44
2023/10/09 14:21:25;;;;;;;;;7.25;5.00;;;;;;;;5077148;27;45652;-44
2023/10/09 14:23:50;;;;;;;;;5.00;5.00;;;;;;;;5085913;27;45396;-45
2023/10/09 14:26:18;;;;;;;;;5.50;5.00;;;;;;;;5086647;27;45400;-44
2023/10/09 14:28:43;;;;;;;;;3.50;3.25;;;;;;;;5086249;27;46176;-44
2023/10/09 14:31:12;;;;;;;;;7.75;5.00;;;;;;;;5080588;27;45540;-44
2023/10/09 14:33:37;;;;;;;;;6.00;4.75;;;;;;;;5088680;27;45301;-44
2023/10/09 14:36:05;;;;;;;;;8.00;4.25;;;;;;;;5084959;27;45595;-45
2023/10/09 14:38:32;;;;;;;;;5.75;5.00;;;;;;;;5090136;27;46066;-45
2023/10/09 14:40:59;;;;;;;;;5.50;5.50;;;;;;;;5089502;27;45356;-47
2023/10/09 14:43:28;;;;;;;;;9.00;5.50;;;;;;;;5084895;27;45516;-45
2023/10/09 14:45:54;;;;;;;;;4.25;4.25;;;;;;;;5082652;28;45563;-49
2023/10/09 14:48:25;;;;;;;;;3.00;3.00;;;;;;;;5077913;28;45573;-45
2023/10/09 14:50:54;;;;;;;;;4.00;4.00;;;;;;;;5082628;28;45477;-45
2023/10/09 14:53:26;;;;;;;;;9.00;6.00;;;;;;;;5076911;28;45334;-46
2023/10/09 14:55:59;;;;;;;;;4.75;4.75;;;;;;;;5082923;28;45418;-45
2023/10/09 14:58:25;;;;;;;;;5.50;3.50;;;;;;;;5082620;27;45429;-46
2023/10/09 15:00:54;;;;;;;;;6.00;4.75;;;;;;;;5083783;27;45416;-44
2023/10/09 15:03:19;;;;;;;;;7.25;5.25;;;;;;;;5084865;27;45518;-46
2023/10/09 15:05:45;;;;;;;;;4.50;4.25;;;;;;;;5079950;27;45651;-44
2023/10/09 15:08:11;;;;;;;;;6.00;4.75;;;;;;;;5079729;28;46255;-44
2023/10/09 15:10:47;;;;;;;;;6.75;3.75;;;;;;;;5081721;28;45235;-44
2023/10/09 15:13:13;;;;;;;;;4.50;4.00;;;;;;;;5081298;27;45413;-45
2023/10/09 15:15:41;;;;;;;;;8.25;6.00;;;;;;;;5081552;27;45713;-46
2023/10/09 15:18:07;;;;;;;;;5.50;5.25;;;;;;;;5079468;28;46099;-47
2023/10/09 15:20:34;;;;;;;;;5.50;5.00;;;;;;;;5081454;28;45481;-45
2023/10/09 15:23:01;;;;;;;;;6.25;6.25;;;;;;;;5076990;27;45319;-45
2023/10/09 15:25:26;;;;;;;;;6.00;6.00;;;;;;;;5081641;28;45364;-45
2023/10/09 15:27:51;;;;;;;;;8.00;5.25;;;;;;;;5081273;28;46289;-45
2023/10/09 15:30:16;;;;;;;;;6.00;5.25;;;;;;;;5076797;28;45425;-48
2023/10/09 15:32:42;;;;;;;;;6.00;6.00;;;;;;;;5078003;28;45375;-45
2023/10/09 15:35:09;;;;;;;;;5.25;5.25;;;;;;;;5078386;27;45393;-46
2023/10/09 15:37:36;;;;;;;;;8.75;6.75;;;;;;;;5077425;27;46306;-44
2023/10/09 15:40:04;;;;;;;;;5.75;5.75;;;;;;;;5080105;28;45307;-45
2023/10/09 15:42:30;;;;;;;;;7.75;6.00;;;;;;;;5076124;28;45326;-45
2023/10/09 15:44:55;;;;;;;;;16.33;16.33;;;;;;;;5073837;27;45549;-48
2023/10/09 15:47:21;;;;;;;;;7.00;6.25;;;;;;;;5076967;27;46101;-47
2023/10/09 15:49:47;;;;;;;;;10.00;10.00;;;;;;;;5077380;28;45608;-46
2023/10/09 15:52:14;;;;;;;;;7.00;6.00;;;;;;;;5079641;28;45276;-47
2023/10/09 15:54:42;;;;;;;;;11.50;8.50;;;;;;;;5079594;27;45391;-45
2023/10/09 15:57:09;;;;;;;;;5.75;5.00;;;;;;;;5080372;28;47238;-45
2023/10/09 15:59:34;;;;;;;;;8.25;6.00;;;;;;;;5077079;28;45445;-46
2023/10/09 16:01:59;;;;;;;;;6.50;6.50;;;;;;;;5074050;27;45465;-45
2023/10/09 16:04:25;;;;;;;;;6.00;5.25;;;;;;;;5076836;28;45447;-46
2023/10/09 16:06:52;;;;;;;;;8.00;5.00;;;;;;;;5082992;27;45424;-45
2023/10/09 16:09:21;;;;;;;;;9.50;7.00;;;;;;;;5071389;28;45424;-45
2023/10/09 16:11:47;;;;;;;;;9.75;9.75;;;;;;;;5077369;28;45489;-45
2023/10/09 16:14:15;;;;;;;;;9.75;8.25;;;;;;;;5079804;28;45393;-45
2023/10/09 16:16:43;;;;;;;;;7.00;7.00;;;;;;;;5079916;27;46999;-45
2023/10/09 16:19:12;;;;;;;;;7.25;6.00;;;;;;;;5075226;28;45343;-44
2023/10/09 16:21:37;;;;;;;;;20.00;17.00;;;;;;;;5080723;27;45718;-48
2023/10/09 16:24:06;;;;;;;;;9.75;8.50;;;;;;;;5078984;27;45490;-44
2023/10/09 16:26:39;;;;;;;;;28.33;24.00;;;;;;;;5076199;27;47116;-45
2023/10/09 16:29:04;;;;;;;;;11.50;8.00;;;;;;;;5076802;27;45588;-45
2023/10/09 16:31:35;;;;;;;;;12.00;9.33;;;;;;;;5073283;27;45980;-46
2023/10/09 16:34:00;;;;;;;;;10.50;9.00;;;;;;;;5072069;27;45571;-45
2023/10/09 16:36:26;;;;;;;;;12.00;11.00;;;;;;;;5069437;27;45673;-45
2023/10/09 16:38:52;;;;;;;;;10.33;8.67;;;;;;;;5071066;27;45612;-42
2023/10/09 16:41:17;;;;;;;;;12.00;8.33;;;;;;;;5072638;27;45476;-42
2023/10/09 16:43:43;;;;;;;;;6.75;6.75;;;;;;;;5075992;27;45736;-44
2023/10/09 16:46:08;;;;;;;;;7.50;7.50;;;;;;;;5074845;27;47373;-44
2023/10/09 16:48:37;;;;;;;;;8.25;6.75;;;;;;;;5078526;27;45338;-44
2023/10/09 16:51:05;;;;;;;;;12.00;9.33;;;;;;;;5069672;27;45353;-43
2023/10/09 16:53:31;;;;;;;;;16.00;11.75;;;;;;;;5074366;27;45350;-46
2023/10/09 16:55:57;;;;;;;;;10.00;9.00;;;;;;;;5070930;27;45453;-43
2023/10/09 16:58:22;;;;;;;;;12.67;10.00;;;;;;;;5071861;27;45525;-43
2023/10/09 17:00:47;;;;;;;;;9.33;8.67;;;;;;;;5072099;27;45581;-45
2023/10/09 17:03:14;;;;;;;;;8.33;8.33;;;;;;;;5072944;27;45803;-44
2023/10/09 17:05:55;;;;;;;;;10.25;8.25;;;;;;;;5072169;27;47405;-44
2023/10/09 17:08:20;;;;;;;;;8.50;7.00;;;;;;;;5075414;27;45680;-42
2023/10/09 17:10:45;;;;;;;;;16.67;14.00;;;;;;;;5076672;27;45692;-44
2023/10/09 17:13:11;;;;;;;;;13.67;12.33;;;;;;;;5079948;27;45706;-44
2023/10/09 17:15:36;;;;;;;;;22.00;17.00;;;;;;;;5070318;28;46165;-44
2023/10/09 17:18:02;;;;;;;;;14.00;13.00;;;;;;;;5078343;27;45554;-44
2023/10/09 17:20:27;;;;;;;;;12.67;12.33;;;;;;;;5076826;28;45290;-43
2023/10/09 17:22:53;;;;;;;;;15.00;13.00;;;;;;;;5078946;28;45438;-43
2023/10/09 17:25:18;;;;;;;;;17.67;14.00;;;;;;;;5077257;27;46564;-42
2023/10/09 17:27:44;;;;;;;;;11.67;10.67;;;;;;;;5077266;27;45509;-43